Portada
METAR-TAF:

METAR-TAF

Aeroports :

In Salah, Algèria

latitud: 27-15N, longitud: 002-31E, altitud: 269 m

Observació

L'informe es va fer fa 41 minuts, a les 15:00 UTC
Vent calma
Temperatura 29°C
Humitat 12%
Pressió 1015 hPa
Visibilitat 10 km o més
sense núvols per sota de 1500 mi sense presència de cumulonimbus.

METAR: DAUI 261500Z 00000KT CAVOK 29/M03 Q1015

Hora: 16:41 (15:41 UTC)

Pronòstic

L'informe es va fer fa 4 hores i 41 minuts, a les 11:00 UTC
Pronòstic vàlid del 26 a les 12 UTC al 27 a les 12 UTC
Vent 10 kt del Nord-Est
Visibilitat 10 km o més
sense núvols per sota de 1500 mi sense presència de cumulonimbus.

TAF: DAUI 261100Z 2612/2712 04010KT CAVOK

Observacions i pronòstics meteorològics de més de 4000 aeroports (METAR i TAF).

Les estacions disponibles són els punts grocs i vermells al mapa.

Posi el ratolí al punt desitjat per veure el nom de l'estació.

Feu clic per veure les observacions i els pronòstics meteorològics.

Per canviar el mapa: feu clic els botons verds amb una creu de color negre per apropar; al botó verd amb un guió per allunyar la imatge; o en les fletxes verdes per a mapes adjacents.


METAR-TAF: